Terminal Aerodrome Forecast
Issued by NWS Sterling, VA

Current Version | Previous Version | Graphics & Text | Print | Product List | Glossary On
Versions: 1 2 3 4 5 6 7 8 9 10 11 12 13 14 15 16 17 18 19 20 21 22
000
FTUS41 KLWX 170537
TAFDCA
TAF
KDCA 170537Z 1706/1812 32009KT P6SM -SN OVC050
     FM170800 33010KT P6SM -SN OVC025
     FM171000 33010G20KT 5SM -SN OVC025
     FM171300 33011G19KT P6SM OVC035
     FM180000 32011KT P6SM SCT070
     FM180600 30007KT P6SM FEW090=

USA.gov is the U.S. government's official web portal to all federal, state and local government web resources and services.